アルハンゲリスク の空港の天気 - METARとTAF

Arhangel'Sk ( ULAA / ARH ) - ロシア アルハンゲリスク
飛行場実況気象(Metar)
観測時間06/17 22:00 MSK (06/17 19:00 UTC)
風向・風速西 1m/s
視程10km以上
天気現象
なし
気温13℃
湿度67%
気圧1006hPa
METARULAA 171900Z 27001MPS CAVOK 13/07 Q1006 R26/CLRD68 NOSIG RMK QFE753/1005
過去の天気等 Google飛行場航空写真 Wunderground天気予報

過去48時間のMETAR

飛行場予報(TAF)
発表時間: 6/13 04:56 MSK (6/13 01:56 UTC)
予報対象時間: 13日6時 MSK ~ 14日6時 MSK
風向・風速北北西 3m/s
視程10km以上
全天の4割程度の雲 雲底高度 610m
13日6時 MSK ~ 13日9時 MSK に一時的に
風向・風速北 4m/s 瞬間風速 9m/s
視程3100m
天気現象もや
少しの雲 雲底高度 210m
13日9時 MSK ~ 13日21時 MSK に一時的に
風向・風速北 4m/s 瞬間風速 12m/s
TAF ULAA 130156Z 1303/1403 33003MPS 9999 SCT020
TEMPO 1303/1306 35004G09MPS 3100 BR FEW007
TEMPO 1306/1318 36004G12MPS